Time;durP1;ratioP1;P1;durP2;ratioP2;P2;SDS_P1;SDS_P2;PMS_P1;PMS_P2;Temp;Humidity;BMP_temperature;BMP_pressure;BME280_temperature;BME280_humidity;BME280_pressure;Samples;Min_cycle;Max_cycle;Signal;HPM_P1;HPM_P2
2022/05/25 00:01:00;;;;;;;4.57;3.03;;;10.70;99.90;;;;;;6092674;23;20169;-83
2022/05/25 00:03:28;;;;;;;4.53;3.60;;;10.70;99.90;;;;;;6070238;23;20153;-84
2022/05/25 00:05:55;;;;;;;5.73;4.00;;;10.70;99.90;;;;;;6068374;23;20169;-83
2022/05/25 00:08:21;;;;;;;4.17;3.37;;;10.70;99.90;;;;;;6092724;23;20769;-87
2022/05/25 00:10:47;;;;;;;4.70;3.47;;;10.60;99.90;;;;;;6092535;23;20164;-83
2022/05/25 00:13:13;;;;;;;6.73;3.50;;;10.60;99.90;;;;;;6094078;23;20722;-81
2022/05/25 00:15:38;;;;;;;4.53;2.70;;;10.60;99.90;;;;;;6092452;23;20168;-84
2022/05/25 00:18:07;;;;;;;9.23;3.63;;;10.50;99.90;;;;;;6092414;23;20164;-82
2022/05/25 00:20:34;;;;;;;5.67;3.83;;;10.50;99.90;;;;;;6068817;23;20163;-83
2022/05/25 00:23:00;;;;;;;9.47;2.80;;;10.50;99.90;;;;;;6068678;23;20157;-85
2022/05/25 00:25:30;;;;;;;6.20;3.70;;;10.40;99.90;;;;;;6068008;23;20212;-82
2022/05/25 00:27:56;;;;;;;3.20;2.87;;;10.30;99.90;;;;;;6092172;23;20161;-81
2022/05/25 00:30:24;;;;;;;5.90;3.17;;;10.20;99.90;;;;;;6093676;23;20157;-81
2022/05/25 00:32:50;;;;;;;4.07;3.00;;;10.20;99.90;;;;;;6068399;23;20189;-86
2022/05/25 00:35:18;;;;;;;4.23;3.60;;;10.20;99.90;;;;;;6068361;23;20248;-81
2022/05/25 00:37:45;;;;;;;4.83;3.63;;;10.10;99.90;;;;;;6091820;23;20204;-86
2022/05/25 00:40:15;;;;;;;5.53;3.53;;;10.10;99.90;;;;;;6093730;23;20156;-83
2022/05/25 00:42:41;;;;;;;5.17;3.17;;;10.00;99.90;;;;;;6091923;23;20191;-83
2022/05/25 00:45:07;;;;;;;5.20;3.27;;;10.00;99.90;;;;;;6092333;23;20161;-84
2022/05/25 00:47:37;;;;;;;5.10;3.77;;;9.90;99.90;;;;;;6093245;23;20630;-83
2022/05/25 00:50:04;;;;;;;5.13;4.07;;;9.90;99.90;;;;;;6092140;23;20472;-82
2022/05/25 00:52:31;;;;;;;5.17;3.53;;;9.90;99.90;;;;;;6093747;23;20192;-81
2022/05/25 00:55:04;;;;;;;8.50;2.97;;;9.90;99.90;;;;;;6068160;23;20187;-87
2022/05/25 00:57:45;;;;;;;3.73;3.30;;;9.90;99.90;;;;;;6093456;23;20224;-82
2022/05/25 01:00:15;;;;;;;7.37;4.60;;;9.90;99.90;;;;;;6092431;23;20172;-83
2022/05/25 01:02:44;;;;;;;5.20;3.07;;;9.90;99.90;;;;;;6093281;23;20168;-84
2022/05/25 01:05:11;;;;;;;6.17;3.43;;;9.80;99.90;;;;;;6092123;23;20160;-84
2022/05/25 01:08:02;;;;;;;3.23;2.73;;;9.80;99.90;;;;;;6093479;23;20208;-87
2022/05/25 01:11:16;;;;;;;7.30;3.30;;;9.80;99.90;;;;;;6092552;23;20157;-83
2022/05/25 01:14:08;;;;;;;3.60;2.77;;;9.80;99.90;;;;;;5981116;23;20167;-83
2022/05/25 01:16:49;;;;;;;4.00;3.63;;;9.80;99.90;;;;;;6075066;23;20157;-82
2022/05/25 01:19:39;;;;;;;4.20;3.80;;;9.80;99.90;;;;;;6092298;23;20145;-87
2022/05/25 01:22:17;;;;;;;4.63;3.13;;;9.80;99.90;;;;;;6092121;23;20722;-90
2022/05/25 01:24:55;;;;;;;6.73;4.63;;;9.80;99.90;;;;;;6092260;23;20145;-88
2022/05/25 01:27:20;;;;;;;5.93;3.30;;;9.80;99.90;;;;;;6092573;23;20160;-86
2022/05/25 01:30:17;;;;;;;2.73;2.33;;;9.80;99.90;;;;;;6091841;23;20169;-83
2022/05/25 01:33:04;;;;;;;8.17;3.83;;;9.70;99.90;;;;;;6092082;23;20217;-84
2022/05/25 01:35:33;;;;;;;3.83;3.13;;;9.80;99.90;;;;;;6093798;23;20584;-84
2022/05/25 01:38:13;;;;;;;4.63;2.70;;;9.80;99.90;;;;;;6093238;23;20161;-87
2022/05/25 01:41:08;;;;;;;6.03;4.23;;;9.80;99.90;;;;;;6092501;23;20149;-83
2022/05/25 01:43:44;;;;;;;4.17;3.77;;;9.80;99.90;;;;;;6092242;23;20177;-83
2022/05/25 01:46:16;;;;;;;5.20;3.37;;;9.80;99.90;;;;;;6092549;23;20196;-82
2022/05/25 01:48:44;;;;;;;9.43;4.43;;;9.80;99.90;;;;;;6092110;23;20236;-85
2022/05/25 01:51:19;;;;;;;3.73;2.90;;;9.80;99.90;;;;;;6091858;23;20215;-84
2022/05/25 01:53:50;;;;;;;7.87;3.90;;;9.90;99.90;;;;;;6092408;23;20462;-85
2022/05/25 01:56:19;;;;;;;5.67;3.37;;;9.90;99.90;;;;;;6092437;23;20145;-84
2022/05/25 01:58:47;;;;;;;4.60;3.57;;;9.90;99.90;;;;;;6093617;23;20156;-82
2022/05/25 02:01:13;;;;;;;7.60;4.00;;;9.90;99.90;;;;;;6091956;23;20172;-84
2022/05/25 02:06:42;;;;;;;5.83;3.50;;;10.00;99.90;;;;;;6092760;23;20162;-82
2022/05/25 02:09:40;;;;;;;4.30;3.63;;;10.00;99.90;;;;;;6095482;23;20164;-86
2022/05/25 02:12:27;;;;;;;8.63;4.43;;;10.10;99.90;;;;;;6094108;23;20572;-86
2022/05/25 02:15:26;;;;;;;6.83;3.67;;;10.10;99.90;;;;;;6095244;23;20149;-84
2022/05/25 02:18:07;;;;;;;5.97;3.63;;;10.20;99.90;;;;;;6095529;23;20157;-88
2022/05/25 02:21:01;;;;;;;4.60;4.20;;;10.20;99.90;;;;;;6093925;23;20153;-82
2022/05/25 02:23:49;;;;;;;7.30;3.30;;;10.30;99.90;;;;;;6095799;23;20153;-81
2022/05/25 02:26:28;;;;;;;8.33;3.57;;;10.20;99.90;;;;;;6094009;23;20206;-83
2022/05/25 02:29:19;;;;;;;3.80;3.33;;;10.20;99.90;;;;;;6095187;23;20148;-83
2022/05/25 02:32:11;;;;;;;2.40;2.17;;;10.20;99.90;;;;;;6093317;23;20188;-90
2022/05/25 02:34:41;;;;;;;5.37;3.40;;;10.30;99.90;;;;;;6091913;23;20608;-83
2022/05/25 02:37:08;;;;;;;7.33;3.57;;;10.30;99.90;;;;;;6092081;23;20172;-81
2022/05/25 02:39:34;;;;;;;6.63;3.33;;;10.30;99.90;;;;;;6067946;23;20227;-84
2022/05/25 02:42:00;;;;;;;4.20;3.43;;;10.30;99.90;;;;;;6068231;23;20168;-86
2022/05/25 02:44:26;;;;;;;4.13;3.43;;;10.30;99.90;;;;;;6092280;23;20161;-87
2022/05/25 02:46:51;;;;;;;7.87;4.13;;;10.30;99.90;;;;;;6067848;23;20192;-89
2022/05/25 02:49:18;;;;;;;8.43;4.27;;;10.30;99.90;;;;;;6092884;23;20219;-83
2022/05/25 02:51:45;;;;;;;5.70;4.27;;;10.30;99.90;;;;;;6092359;23;20623;-86
2022/05/25 02:54:11;;;;;;;4.20;3.17;;;10.40;99.90;;;;;;6092790;23;20157;-87
2022/05/25 02:56:37;;;;;;;7.30;3.87;;;10.30;99.90;;;;;;6093719;23;20156;-83
2022/05/25 02:59:03;;;;;;;4.70;3.13;;;10.30;99.90;;;;;;6069480;23;20518;-86
2022/05/25 03:01:29;;;;;;;4.30;2.70;;;10.40;99.90;;;;;;6094863;23;20168;-84
2022/05/25 03:03:55;;;;;;;8.37;4.30;;;10.40;99.90;;;;;;6069739;23;20164;-83
2022/05/25 03:06:21;;;;;;;5.23;2.83;;;10.40;99.90;;;;;;6092250;23;20596;-88
2022/05/25 03:08:47;;;;;;;3.80;3.33;;;10.30;99.90;;;;;;6092899;23;20163;-87
2022/05/25 03:11:12;;;;;;;6.50;4.57;;;10.30;99.90;;;;;;6092903;23;20196;-85
2022/05/25 03:13:38;;;;;;;4.33;3.53;;;10.30;99.90;;;;;;6091088;23;20161;-83
2022/05/25 03:16:07;;;;;;;8.30;3.43;;;10.30;99.90;;;;;;6067231;23;20157;-83
2022/05/25 03:18:34;;;;;;;3.43;2.37;;;10.30;99.90;;;;;;6069071;23;20157;-83
2022/05/25 03:21:00;;;;;;;5.70;4.03;;;10.30;99.90;;;;;;6092708;23;20157;-82
2022/05/25 03:23:26;;;;;;;5.40;3.67;;;10.30;99.90;;;;;;6069193;23;20157;-84
2022/05/25 03:25:51;;;;;;;3.53;3.23;;;10.30;99.90;;;;;;6092713;23;20283;-84
2022/05/25 03:28:17;;;;;;;11.80;3.73;;;10.30;99.90;;;;;;6092742;23;20203;-83
2022/05/25 03:30:45;;;;;;;7.07;3.57;;;10.30;99.90;;;;;;6094812;23;20618;-84
2022/05/25 03:33:11;;;;;;;3.13;2.47;;;10.40;99.90;;;;;;6092765;23;20172;-82
2022/05/25 03:35:37;;;;;;;3.63;2.97;;;10.40;99.90;;;;;;6094297;23;20153;-81
2022/05/25 03:38:04;;;;;;;4.53;3.87;;;10.40;99.90;;;;;;6093164;23;20168;-85
2022/05/25 03:40:30;;;;;;;5.17;2.50;;;10.40;99.90;;;;;;6092948;23;20161;-84
2022/05/25 03:42:57;;;;;;;1.97;1.83;;;10.50;99.90;;;;;;6093182;23;20591;-85
2022/05/25 03:45:24;;;;;;;9.33;3.53;;;10.50;99.90;;;;;;6093474;23;20157;-83
2022/05/25 03:47:49;;;;;;;6.57;2.30;;;10.50;99.90;;;;;;6092997;23;20510;-81
2022/05/25 03:50:18;;;;;;;2.20;2.00;;;10.50;99.90;;;;;;6092865;23;20212;-85
2022/05/25 03:52:44;;;;;;;2.77;1.83;;;10.50;99.90;;;;;;6092871;23;20189;-88
2022/05/25 03:55:10;;;;;;;6.83;3.57;;;10.50;99.90;;;;;;6067754;23;20595;-86
2022/05/25 03:57:36;;;;;;;3.80;2.23;;;10.60;99.90;;;;;;6092490;23;20232;-88
2022/05/25 04:00:04;;;;;;;2.20;2.00;;;10.60;99.90;;;;;;6069316;23;20161;-84
2022/05/25 04:02:30;;;;;;;4.77;2.83;;;10.60;99.90;;;;;;6094192;23;20167;-84
2022/05/25 04:05:08;;;;;;;3.40;1.87;;;10.60;99.90;;;;;;6093367;23;20382;-84
2022/05/25 04:07:40;;;;;;;3.70;2.40;;;10.70;99.90;;;;;;6093364;23;20176;-85
2022/05/25 04:10:07;;;;;;;2.73;2.17;;;10.70;99.90;;;;;;6092982;23;20153;-85
2022/05/25 04:12:33;;;;;;;3.93;2.60;;;10.70;99.90;;;;;;6094138;23;20785;-84
2022/05/25 04:14:59;;;;;;;3.90;2.80;;;10.80;99.90;;;;;;6094366;23;20167;-86
2022/05/25 04:17:25;;;;;;;3.30;2.93;;;10.80;99.90;;;;;;6095152;23;20156;-87
2022/05/25 04:19:50;;;;;;;8.50;3.00;;;10.80;99.90;;;;;;6093135;23;20161;-83
2022/05/25 04:22:17;;;;;;;3.20;2.10;;;10.90;99.90;;;;;;6092611;23;20588;-84
2022/05/25 04:24:43;;;;;;;3.97;2.43;;;10.90;99.90;;;;;;6068810;23;20164;-87
2022/05/25 04:27:09;;;;;;;2.53;1.83;;;11.00;99.90;;;;;;6068361;23;20204;-81
2022/05/25 04:29:37;;;;;;;2.07;1.87;;;11.00;99.90;;;;;;6098504;23;20180;-87
2022/05/25 04:32:04;;;;;;;6.47;2.30;;;11.00;99.90;;;;;;6093175;23;20197;-86
2022/05/25 04:34:30;;;;;;;2.80;2.27;;;11.10;99.90;;;;;;6092444;23;20608;-84
2022/05/25 04:37:48;;;;;;;2.50;2.20;;;11.20;99.90;;;;;;6092742;23;20161;-84
2022/05/25 04:39:41;;;;;;;2.57;1.97;;;11.30;99.90;;;;;;6092587;23;20300;-86
2022/05/25 04:42:07;;;;;;;8.00;3.27;;;11.30;99.90;;;;;;6068534;23;20185;-82
2022/05/25 04:44:33;;;;;;;6.93;2.73;;;11.40;99.90;;;;;;6068774;23;20157;-85
2022/05/25 04:46:59;;;;;;;1.83;1.70;;;11.50;99.90;;;;;;6092873;23;20168;-83
2022/05/25 04:49:26;;;;;;;5.43;2.80;;;11.60;99.90;;;;;;6092098;23;20157;-84
2022/05/25 04:51:52;;;;;;;6.27;2.60;;;11.60;99.90;;;;;;6092176;23;20193;-82
2022/05/25 04:54:18;;;;;;;2.20;1.83;;;11.70;99.90;;;;;;6092303;23;20252;-88
2022/05/25 04:59:28;;;;;;;4.57;2.67;;;12.00;99.90;;;;;;6094010;23;20167;-84
2022/05/25 05:01:54;;;;;;;3.03;2.50;;;12.10;99.90;;;;;;6092618;23;20188;-84
2022/05/25 05:04:20;;;;;;;4.03;2.57;;;12.20;99.90;;;;;;6092376;23;20868;-84
2022/05/25 05:06:47;;;;;;;3.10;2.23;;;12.30;99.90;;;;;;6092280;23;20168;-84
2022/05/25 05:09:13;;;;;;;4.40;2.40;;;12.40;99.90;;;;;;6092234;23;20633;-84
2022/05/25 05:11:39;;;;;;;4.03;1.87;;;12.50;99.90;;;;;;6068689;23;20264;-84
2022/05/25 05:14:04;;;;;;;6.90;2.57;;;12.60;99.90;;;;;;6068771;23;20595;-85
2022/05/25 05:16:30;;;;;;;3.00;1.83;;;12.70;99.90;;;;;;6093777;23;20236;-86
2022/05/25 05:18:56;;;;;;;2.70;2.50;;;14.50;99.90;;;;;;6092181;23;20646;-86
2022/05/25 05:21:21;;;;;;;3.57;2.93;;;16.60;99.90;;;;;;6091806;23;20229;-84
2022/05/25 05:23:47;;;;;;;4.63;2.00;;;19.90;99.90;;;;;;6091982;23;20858;-83
2022/05/25 05:26:13;;;;;;;3.03;2.13;;;21.70;99.90;;;;;;6068395;23;20639;-81
2022/05/25 05:28:41;;;;;;;4.13;2.07;;;22.50;99.90;;;;;;6092453;23;20168;-84
2022/05/25 05:31:08;;;;;;;1.43;1.33;;;22.70;99.90;;;;;;6092038;23;20772;-88
2022/05/25 05:33:35;;;;;;;2.10;1.40;;;24.60;99.90;;;;;;6091954;23;20153;-83
2022/05/25 05:36:18;;;;;;;2.40;1.93;;;24.90;99.90;;;;;;6092193;23;20167;-89
2022/05/25 05:38:49;;;;;;;3.67;1.63;;;24.30;99.90;;;;;;6093773;23;20183;-83
2022/05/25 05:41:19;;;;;;;1.13;1.10;;;24.70;99.90;;;;;;6093876;23;20539;-87
2022/05/25 05:43:45;;;;;;;1.87;1.07;;;25.10;99.90;;;;;;6092685;23;20161;-89
2022/05/25 05:46:11;;;;;;;1.37;1.10;;;25.40;99.90;;;;;;6092794;23;20215;-89
2022/05/25 05:48:38;;;;;;;2.97;1.20;;;24.40;99.90;;;;;;6092444;23;20579;-86
2022/05/25 05:51:05;;;;;;;1.10;1.00;;;25.20;99.90;;;;;;6093038;23;20214;-85
2022/05/25 05:53:31;;;;;;;1.30;1.20;;;26.30;99.90;;;;;;6093119;23;20157;-84
2022/05/25 05:55:58;;;;;;;1.37;1.13;;;26.80;99.90;;;;;;6091658;23;20231;-85
2022/05/25 05:58:24;;;;;;;0.80;0.80;;;26.90;99.90;;;;;;6093632;23;20157;-85
2022/05/25 06:00:51;;;;;;;1.23;0.90;;;27.70;99.90;;;;;;6092495;23;20169;-83
2022/05/25 06:03:18;;;;;;;3.63;1.13;;;27.60;99.90;;;;;;6092445;23;20161;-84
2022/05/25 06:05:44;;;;;;;1.37;1.03;;;26.90;99.90;;;;;;6092894;23;20489;-85
2022/05/25 06:08:17;;;;;;;7.90;1.73;;;25.70;99.90;;;;;;6092800;23;20160;-82
2022/05/25 06:10:43;;;;;;;1.00;0.98;;;27.50;99.90;;;;;;6094742;23;20240;-83
2022/05/25 06:13:09;;;;;;;1.85;1.20;;;27.30;99.90;;;;;;6069295;23;20383;-82
2022/05/25 06:21:05;;;;;;;1.70;1.00;;;24.30;99.90;;;;;;6092651;23;20149;-84
2022/05/25 06:23:32;;;;;;;2.28;1.10;;;23.80;99.90;;;;;;6092339;23;20243;-87
2022/05/25 06:25:58;;;;;;;1.60;1.48;;;24.60;99.90;;;;;;6092162;23;20196;-85
2022/05/25 06:28:23;;;;;;;1.67;1.20;;;24.60;99.90;;;;;;6092454;23;20199;-88
2022/05/25 06:30:49;;;;;;;1.70;1.20;;;24.80;99.90;;;;;;6092695;23;20611;-86
2022/05/25 06:33:15;;;;;;;1.27;1.17;;;25.30;99.90;;;;;;6092351;23;20169;-85
2022/05/25 06:35:41;;;;;;;1.52;1.02;;;25.10;99.90;;;;;;6068733;23;20780;-87
2022/05/25 06:38:07;;;;;;;1.42;1.00;;;25.10;99.90;;;;;;6092646;23;20158;-83
2022/05/25 06:40:33;;;;;;;1.45;1.08;;;24.80;99.90;;;;;;6069021;23;20224;-86
2022/05/25 06:42:58;;;;;;;1.95;1.48;;;25.50;99.90;;;;;;6094105;23;20608;-85
2022/05/25 06:45:24;;;;;;;3.38;1.60;;;25.90;99.90;;;;;;6092906;23;20176;-84
2022/05/25 06:47:50;;;;;;;3.92;1.63;;;24.50;99.90;;;;;;6093679;23;20680;-85
2022/05/25 06:50:16;;;;;;;4.20;1.30;;;25.20;99.90;;;;;;6094272;23;20541;-83
2022/05/25 06:52:42;;;;;;;2.92;1.08;;;25.70;99.90;;;;;;6095462;23;20702;-83
2022/05/25 06:55:08;;;;;;;2.17;1.42;;;26.00;99.90;;;;;;6071139;23;20160;-88
2022/05/25 06:57:33;;;;;;;1.13;1.02;;;25.10;99.90;;;;;;6094896;23;20165;-87
2022/05/25 06:59:59;;;;;;;1.58;1.23;;;24.10;99.90;;;;;;6070965;23;20285;-84
2022/05/25 07:02:26;;;;;;;1.45;1.30;;;23.90;99.90;;;;;;6093787;23;20714;-85
2022/05/25 07:04:53;;;;;;;1.58;1.30;;;24.00;99.90;;;;;;6100483;23;20156;-89
2022/05/25 07:07:19;;;;;;;3.05;1.70;;;24.50;99.90;;;;;;6071603;23;20173;-89
2022/05/25 07:09:45;;;;;;;5.40;1.48;;;24.70;99.90;;;;;;6094162;23;20160;-86
2022/05/25 07:12:11;;;;;;;1.40;1.30;;;22.90;99.90;;;;;;6093056;23;20221;-86
2022/05/25 07:14:39;;;;;;;2.53;1.58;;;22.70;99.90;;;;;;6093880;23;20157;-85
2022/05/25 07:17:06;;;;;;;2.07;1.33;;;21.50;99.90;;;;;;6069192;23;20181;-86
2022/05/25 07:19:31;;;;;;;1.40;1.30;;;20.90;99.90;;;;;;6094634;23;20752;-85
2022/05/25 07:21:57;;;;;;;1.43;1.33;;;20.80;99.90;;;;;;6069391;23;20165;-85
2022/05/25 07:24:23;;;;;;;1.57;1.43;;;21.30;99.90;;;;;;6094256;23;20160;-87
2022/05/25 07:26:49;;;;;;;1.60;1.30;;;21.60;99.90;;;;;;6069268;23;20224;-84
2022/05/25 07:29:15;;;;;;;1.90;1.70;;;22.80;99.90;;;;;;6094493;23;20504;-84
2022/05/25 07:31:46;;;;;;;2.30;1.57;;;23.20;99.90;;;;;;6093016;23;20353;-87
2022/05/25 07:34:19;;;;;;;1.70;1.60;;;23.30;99.90;;;;;;6093253;23;20149;-89
2022/05/25 07:36:51;;;;;;;3.73;1.70;;;24.10;99.90;;;;;;6092970;23;20149;-87
2022/05/25 07:39:19;;;;;;;4.20;1.92;;;24.50;99.90;;;;;;6093239;23;20153;-87
2022/05/25 07:41:51;;;;;;;2.40;1.90;;;25.30;99.90;;;;;;6067346;23;20169;-87
2022/05/25 07:44:25;;;;;;;3.35;1.83;;;25.60;99.90;;;;;;6091635;23;20200;-86
2022/05/25 07:46:50;;;;;;;4.20;1.52;;;23.80;99.90;;;;;;6091748;23;20149;-85
2022/05/25 07:49:16;;;;;;;5.65;1.42;;;21.90;99.90;;;;;;6091414;23;20228;-89
2022/05/25 07:51:42;;;;;;;5.20;2.23;;;19.90;99.90;;;;;;6091074;23;20489;-86
2022/05/25 07:54:09;;;;;;;3.73;2.40;;;19.90;99.90;;;;;;6092902;23;20255;-88
2022/05/25 07:56:37;;;;;;;2.60;2.40;;;20.40;99.90;;;;;;6091273;23;20160;-84
2022/05/25 07:59:08;;;;;;;2.07;1.67;;;22.00;99.90;;;;;;6092106;23;20157;-85
2022/05/25 08:07:11;;;;;;;2.53;1.80;;;23.60;99.90;;;;;;6093204;23;20141;-84
2022/05/25 08:09:37;;;;;;;2.50;2.27;;;23.40;99.90;;;;;;6092412;23;20168;-90
2022/05/25 08:12:06;;;;;;;1.90;1.80;;;23.00;99.90;;;;;;6090350;23;20216;-87
2022/05/25 08:14:32;;;;;;;4.17;2.27;;;21.60;99.90;;;;;;6091889;23;20153;-85
2022/05/25 08:16:58;;;;;;;3.53;1.90;;;21.10;99.90;;;;;;6093417;23;20347;-86
2022/05/25 08:19:23;;;;;;;1.90;1.53;;;21.00;99.90;;;;;;6068219;23;20316;-89
2022/05/25 08:21:51;;;;;;;3.10;2.00;;;20.60;99.90;;;;;;6092436;23;20486;-85
2022/05/25 08:24:18;;;;;;;1.60;1.47;;;20.30;99.90;;;;;;6067386;23;20161;-86
2022/05/25 08:26:44;;;;;;;2.97;1.47;;;20.70;99.90;;;;;;6092509;23;20430;-85
2022/05/25 08:29:10;;;;;;;1.40;1.30;;;20.20;99.90;;;;;;6091316;23;20535;-86
2022/05/25 08:31:37;;;;;;;2.70;1.80;;;19.50;99.90;;;;;;6090909;23;20223;-85
2022/05/25 08:34:04;;;;;;;3.33;1.60;;;19.20;99.90;;;;;;6091353;23;20164;-86
2022/05/25 08:36:30;;;;;;;1.33;1.23;;;18.80;99.90;;;;;;6091601;23;20153;-84
2022/05/25 08:38:56;;;;;;;3.13;1.50;;;18.90;99.90;;;;;;6090877;23;20265;-90
2022/05/25 08:41:32;;;;;;;1.33;1.23;;;19.20;99.90;;;;;;6090517;23;20197;-85
2022/05/25 08:43:59;;;;;;;2.77;1.93;;;19.10;99.90;;;;;;6091094;23;20149;-84
2022/05/25 08:46:28;;;;;;;3.00;1.70;;;19.20;99.90;;;;;;6091826;23;20163;-86
2022/05/25 08:48:54;;;;;;;2.50;2.00;;;19.70;99.90;;;;;;6090700;23;20183;-90
2022/05/25 08:51:25;;;;;;;2.30;1.97;;;19.70;99.90;;;;;;6091730;23;20615;-86
2022/05/25 08:53:53;;;;;;;7.33;2.13;;;20.30;99.90;;;;;;6092188;23;20149;-89
2022/05/25 08:56:37;;;;;;;2.33;2.13;;;20.70;99.90;;;;;;6090963;23;20157;-86
2022/05/25 08:59:23;;;;;;;2.20;2.00;;;19.60;99.90;;;;;;6090360;23;20521;-86
2022/05/25 09:02:11;;;;;;;1.93;1.73;;;19.30;99.90;;;;;;6090899;23;20153;-90
2022/05/25 09:04:40;;;;;;;2.53;2.33;;;19.00;99.90;;;;;;6092696;23;20161;-90
2022/05/25 09:07:24;;;;;;;2.57;2.23;;;18.60;99.90;;;;;;6091928;23;20236;-86
2022/05/25 09:09:51;;;;;;;6.10;2.13;;;19.30;99.90;;;;;;6091045;23;20145;-86
2022/05/25 09:12:40;;;;;;;4.97;2.40;;;19.10;99.90;;;;;;6090537;23;20188;-90
2022/05/25 09:15:13;;;;;;;4.27;2.07;;;19.60;99.90;;;;;;6091644;23;20156;-88
2022/05/25 09:18:13;;;;;;;2.83;2.37;;;20.80;99.90;;;;;;6091475;23;20173;-87
2022/05/25 09:20:46;;;;;;;2.60;1.93;;;21.30;99.90;;;;;;6086245;23;20677;-84
2022/05/25 09:23:14;;;;;;;3.93;1.83;;;20.90;99.90;;;;;;6091982;23;20216;-89
2022/05/25 09:25:41;;;;;;;4.03;2.00;;;20.40;99.90;;;;;;6089741;23;20193;-86
2022/05/25 09:28:21;;;;;;;2.20;1.57;;;20.00;99.90;;;;;;6090202;23;20176;-86
2022/05/25 09:30:56;;;;;;;2.20;2.00;;;19.70;99.90;;;;;;6091948;23;20152;-85
2022/05/25 09:33:43;;;;;;;3.73;1.77;;;19.70;99.90;;;;;;6088648;23;20598;-83
2022/05/25 09:36:16;;;;;;;1.90;1.63;;;19.60;99.90;;;;;;6089975;23;20157;-84
2022/05/25 09:39:00;;;;;;;2.97;1.80;;;18.90;99.90;;;;;;6090225;23;20484;-86
2022/05/25 09:41:27;;;;;;;1.83;1.40;;;19.00;99.90;;;;;;6091121;23;20152;-83
2022/05/25 09:43:56;;;;;;;1.90;1.80;;;19.00;99.90;;;;;;6067708;23;20243;-83
2022/05/25 09:46:23;;;;;;;3.93;2.30;;;18.40;99.90;;;;;;6092241;23;20160;-83
2022/05/25 09:48:54;;;;;;;2.47;1.40;;;18.90;99.90;;;;;;6097144;23;20161;-85
2022/05/25 09:51:40;;;;;;;3.50;1.67;;;19.70;99.90;;;;;;6095764;23;20203;-84
2022/05/25 09:54:17;;;;;;;3.17;2.00;;;20.20;99.90;;;;;;6090185;23;20149;-89
2022/05/25 09:56:52;;;;;;;3.57;2.00;;;20.80;99.90;;;;;;6092101;23;20236;-89
2022/05/25 09:59:41;;;;;;;5.07;1.67;;;20.70;99.90;;;;;;6090717;23;20155;-84
2022/05/25 10:02:23;;;;;;;1.80;1.70;;;21.80;99.90;;;;;;6092036;23;20600;-84
2022/05/25 10:04:52;;;;;;;3.77;1.60;;;23.10;99.90;;;;;;6090869;23;20195;-86
2022/05/25 10:07:30;;;;;;;0.90;0.90;;;22.50;99.90;;;;;;6091032;23;20203;-83
2022/05/25 10:10:01;;;;;;;1.30;1.20;;;20.40;99.90;;;;;;6090490;23;20137;-81
2022/05/25 10:13:04;;;;;;;1.37;1.00;;;19.80;99.90;;;;;;6090224;23;20189;-82
2022/05/25 10:15:36;;;;;;;4.80;1.70;;;18.80;99.90;;;;;;6114489;23;20599;-82
2022/05/25 10:18:04;;;;;;;2.70;1.30;;;18.80;99.90;;;;;;6090507;23;20141;-86
2022/05/25 10:20:56;;;;;;;1.40;1.30;;;19.00;99.90;;;;;;6090335;23;20212;-83
2022/05/25 10:23:25;;;;;;;2.20;1.80;;;19.10;99.90;;;;;;6087855;23;20188;-84
2022/05/25 10:25:53;;;;;;;3.27;1.60;;;18.70;99.90;;;;;;6092005;23;20257;-83
2022/05/25 10:28:52;;;;;;;2.03;1.63;;;18.30;99.90;;;;;;6091846;23;20224;-82
2022/05/25 10:37:35;;;;;;;2.00;1.90;;;16.90;99.90;;;;;;6084937;23;20232;-83
2022/05/25 10:40:05;;;;;;;2.57;1.77;;;16.80;99.90;;;;;;6091695;23;20149;-85
2022/05/25 10:42:39;;;;;;;2.00;1.47;;;16.90;99.90;;;;;;6093324;23;20161;-83
2022/05/25 10:45:21;;;;;;;6.53;2.70;;;17.00;99.90;;;;;;6093677;23;20272;-88
2022/05/25 10:47:49;;;;;;;4.50;2.77;;;17.30;99.90;;;;;;6093060;23;20153;-83
2022/05/25 10:50:26;;;;;;;3.17;1.87;;;17.80;99.90;;;;;;6093436;23;20331;-86
2022/05/25 10:53:29;;;;;;;3.97;1.97;;;17.90;99.90;;;;;;6092326;23;20238;-83
2022/05/25 10:56:28;;;;;;;2.20;2.00;;;17.90;99.90;;;;;;6090710;23;20521;-81
2022/05/25 10:59:08;;;;;;;4.33;2.20;;;18.30;99.90;;;;;;6092337;23;20145;-79
2022/05/25 11:01:51;;;;;;;5.30;1.37;;;18.90;99.90;;;;;;6091739;23;20153;-80
2022/05/25 11:04:31;;;;;;;1.70;1.00;;;19.30;99.90;;;;;;6093487;23;20486;-90
2022/05/25 11:07:12;;;;;;;1.40;1.30;;;19.30;99.90;;;;;;6091782;23;20156;-88
2022/05/25 11:09:56;;;;;;;1.33;1.23;;;19.80;99.90;;;;;;6091699;23;20153;-81
2022/05/25 11:12:25;;;;;;;2.90;1.10;;;19.90;99.90;;;;;;6093191;23;20215;-85
2022/05/25 11:15:14;;;;;;;2.20;1.60;;;20.00;99.90;;;;;;6093166;23;20240;-85
2022/05/25 11:17:49;;;;;;;5.60;1.97;;;20.10;99.90;;;;;;6091753;23;20149;-83
2022/05/25 11:20:30;;;;;;;3.70;1.80;;;19.90;99.90;;;;;;6092020;23;20461;-81
2022/05/25 11:23:23;;;;;;;3.10;1.20;;;20.50;99.90;;;;;;6091967;23;20153;-81
2022/05/25 11:26:06;;;;;;;1.97;0.73;;;19.80;99.90;;;;;;6091084;23;20201;-86
2022/05/25 11:28:51;;;;;;;2.60;1.47;;;19.40;99.90;;;;;;6091904;23;20153;-81
2022/05/25 11:31:36;;;;;;;3.87;1.40;;;19.30;99.90;;;;;;6092596;23;20600;-89
2022/05/25 11:34:19;;;;;;;1.10;1.00;;;19.50;99.90;;;;;;6092797;23;20153;-84
2022/05/25 11:36:44;;;;;;;2.70;1.40;;;19.60;99.90;;;;;;6093058;23;20149;-82
2022/05/25 11:39:46;;;;;;;2.23;1.27;;;19.50;99.90;;;;;;6092775;23;20220;-80
2022/05/25 11:42:27;;;;;;;1.83;1.40;;;19.20;99.90;;;;;;6091531;23;20153;-87
2022/05/25 11:45:30;;;;;;;2.53;1.30;;;18.30;99.90;;;;;;6090999;23;20160;-81
2022/05/25 11:48:13;;;;;;;1.30;1.20;;;18.50;99.90;;;;;;6092869;23;20224;-82
2022/05/25 11:50:52;;;;;;;1.57;1.47;;;18.80;99.90;;;;;;6092587;23;20156;-84
2022/05/25 11:53:25;;;;;;;2.50;1.43;;;18.80;99.90;;;;;;6091408;23;20188;-81
2022/05/25 11:56:30;;;;;;;3.33;1.30;;;18.20;99.90;;;;;;6092959;23;20296;-83
2022/05/25 11:59:20;;;;;;;1.17;1.10;;;18.10;99.90;;;;;;6076938;23;20195;-82
2022/05/25 12:01:52;;;;;;;1.47;1.20;;;17.90;99.90;;;;;;6092909;23;20145;-82
2022/05/25 12:04:30;;;;;;;1.80;1.40;;;18.30;99.90;;;;;;6091223;23;20164;-83
2022/05/25 12:06:59;;;;;;;3.83;1.40;;;18.20;99.90;;;;;;6091009;23;20163;-83
2022/05/25 12:09:43;;;;;;;3.00;1.20;;;18.10;99.90;;;;;;6092244;23;20157;-82
2022/05/25 12:12:43;;;;;;;2.50;1.80;;;17.60;99.90;;;;;;6092164;23;20196;-85
2022/05/25 12:15:12;;;;;;;2.03;1.33;;;17.90;99.90;;;;;;6092558;23;20149;-89
2022/05/25 12:18:09;;;;;;;1.20;0.73;;;18.00;99.90;;;;;;6090886;23;20161;-81
2022/05/25 12:20:51;;;;;;;1.60;1.37;;;17.90;99.90;;;;;;6092919;23;20196;-83
2022/05/25 12:23:22;;;;;;;6.13;1.33;;;18.10;99.90;;;;;;6093055;23;20160;-84
2022/05/25 12:25:53;;;;;;;4.57;1.10;;;18.10;99.90;;;;;;6092578;23;20197;-82
2022/05/25 12:28:22;;;;;;;2.37;1.50;;;18.00;99.90;;;;;;6091097;23;20157;-83
2022/05/25 12:30:48;;;;;;;1.27;1.17;;;17.60;99.90;;;;;;6092688;23;20187;-80
2022/05/25 12:33:22;;;;;;;3.50;1.40;;;17.30;99.90;;;;;;6093050;23;20256;-82
2022/05/25 12:35:49;;;;;;;5.30;1.83;;;17.50;99.90;;;;;;6092749;23;20160;-85
2022/05/25 12:38:18;;;;;;;2.03;1.47;;;17.70;99.90;;;;;;6093124;23;20157;-85
2022/05/25 12:40:46;;;;;;;3.33;1.37;;;17.70;99.90;;;;;;6108438;23;20153;-86
2022/05/25 12:43:40;;;;;;;2.40;0.70;;;17.70;99.90;;;;;;6093400;23;20187;-84
2022/05/25 12:48:53;;;;;;;5.10;0.90;;;17.60;99.90;;;;;;6092562;23;20149;-83
2022/05/25 12:51:36;;;;;;;0.80;0.60;;;17.60;99.90;;;;;;6090636;23;20168;-82
2022/05/25 12:54:22;;;;;;;1.17;0.87;;;17.50;99.90;;;;;;6090627;23;20597;-81
2022/05/25 12:56:49;;;;;;;1.00;0.57;;;17.90;99.90;;;;;;6090915;23;20591;-81
2022/05/25 12:59:37;;;;;;;2.60;0.70;;;18.00;99.90;;;;;;6067179;23;20235;-84
2022/05/25 13:02:26;;;;;;;0.33;0.33;;;17.70;99.90;;;;;;6091004;23;20169;-81
2022/05/25 13:04:54;;;;;;;1.87;0.50;;;17.50;99.90;;;;;;6092002;23;20145;-85
2022/05/25 13:07:40;;;;;;;0.27;0.27;;;17.40;99.90;;;;;;6091986;23;20611;-86
2022/05/25 13:10:12;;;;;;;1.90;0.53;;;17.30;99.90;;;;;;6091328;23;20153;-85
2022/05/25 13:12:42;;;;;;;4.10;0.50;;;17.40;99.90;;;;;;6091646;23;20181;-82
2022/05/25 13:15:38;;;;;;;0.97;0.60;;;17.70;99.90;;;;;;6091719;23;20531;-82
2022/05/25 13:18:07;;;;;;;2.37;0.67;;;17.80;99.90;;;;;;6088989;23;20256;-84
2022/05/25 13:20:46;;;;;;;4.47;0.57;;;17.70;99.90;;;;;;6066798;23;20212;-83
2022/05/25 13:23:51;;;;;;;0.80;0.40;;;17.80;99.90;;;;;;6091179;23;20178;-85
2022/05/25 13:26:24;;;;;;;4.90;1.43;;;17.60;99.90;;;;;;6090504;23;20203;-84
2022/05/25 13:29:04;;;;;;;1.97;0.40;;;17.60;99.90;;;;;;6092296;23;20181;-84
2022/05/25 13:31:42;;;;;;;4.80;0.80;;;17.90;99.90;;;;;;6092144;23;20184;-81
2022/05/25 13:34:15;;;;;;;3.00;0.90;;;17.90;99.90;;;;;;6090215;23;20580;-84
2022/05/25 13:37:04;;;;;;;1.73;0.93;;;17.80;99.90;;;;;;6091553;23;20536;-82
2022/05/25 13:39:31;;;;;;;5.50;0.70;;;17.60;99.90;;;;;;6090465;23;20153;-85
2022/05/25 13:42:04;;;;;;;5.30;0.77;;;17.40;99.90;;;;;;6090598;23;20322;-82